createdAt,value
2018-10-21T00:02:22.680Z,5.66
2018-10-21T00:04:51.090Z,5.60
2018-10-21T00:07:19.781Z,5.58
2018-10-21T00:09:48.430Z,5.55
2018-10-21T00:12:16.876Z,5.55
2018-10-21T00:14:46.206Z,5.55
2018-10-21T00:17:14.669Z,5.55
2018-10-21T00:19:43.167Z,5.51
2018-10-21T00:22:12.261Z,5.50
2018-10-21T00:24:40.690Z,5.49
2018-10-21T00:27:09.177Z,5.48
2018-10-21T00:29:37.854Z,5.47
2018-10-21T00:32:06.325Z,5.39
2018-10-21T00:34:34.802Z,5.35
2018-10-21T00:37:03.748Z,5.35
2018-10-21T00:39:32.191Z,5.39
2018-10-21T00:42:00.633Z,5.38
2018-10-21T00:44:30.061Z,5.37
2018-10-21T00:46:58.519Z,5.38
2018-10-21T00:49:26.945Z,5.39
2018-10-21T00:51:56.123Z,5.40
2018-10-21T00:54:24.557Z,5.41
2018-10-21T00:56:53.002Z,5.45
2018-10-21T00:59:21.820Z,5.45
2018-10-21T01:01:50.278Z,5.43
2018-10-21T01:04:18.802Z,5.35
2018-10-21T01:06:47.461Z,5.32
2018-10-21T01:09:16.003Z,5.34
2018-10-21T01:11:44.573Z,5.34
2018-10-21T01:14:13.669Z,5.41
2018-10-21T01:16:42.150Z,5.45
2018-10-21T01:19:10.586Z,5.43
2018-10-21T01:21:39.244Z,5.39
2018-10-21T01:24:07.901Z,5.43
2018-10-21T01:26:36.344Z,5.51
2018-10-21T01:29:05.174Z,5.60
2018-10-21T01:31:33.608Z,5.62
2018-10-21T01:34:02.039Z,5.61
2018-10-21T01:36:31.693Z,5.57
2018-10-21T01:38:59.989Z,5.52
2018-10-21T01:41:28.448Z,5.47
2018-10-21T01:43:57.594Z,5.34
2018-10-21T01:46:26.028Z,5.32
2018-10-21T01:48:54.462Z,5.34
2018-10-21T01:51:23.413Z,5.34
2018-10-21T01:53:51.842Z,5.23
2018-10-21T01:56:20.273Z,5.14
2018-10-21T01:58:49.398Z,5.11
2018-10-21T02:01:17.834Z,5.12
2018-10-21T02:03:46.374Z,5.12
2018-10-21T02:06:15.318Z,5.16
2018-10-21T02:08:43.749Z,5.21
2018-10-21T02:11:12.213Z,5.28
2018-10-21T02:13:42.490Z,5.26
2018-10-21T02:16:10.919Z,5.18
2018-10-21T02:18:39.405Z,5.15
2018-10-21T02:21:08.498Z,5.09
2018-10-21T02:23:36.973Z,5.05
2018-10-21T02:26:05.581Z,5.02
2018-10-21T02:28:34.245Z,4.98
2018-10-21T02:31:02.799Z,4.94
2018-10-21T02:33:31.341Z,4.86
2018-10-21T02:36:00.327Z,4.91
2018-10-21T02:38:28.769Z,4.92
2018-10-21T02:41:36.985Z,4.87
2018-10-21T02:44:06.562Z,4.82
2018-10-21T02:46:35.442Z,4.72
2018-10-21T02:49:04.828Z,4.71
2018-10-21T02:51:33.266Z,4.71
2018-10-21T02:54:01.941Z,4.70
2018-10-21T02:56:30.941Z,4.62
2018-10-21T02:58:59.373Z,4.56
2018-10-21T03:01:28.043Z,4.54
2018-10-21T03:03:57.058Z,4.56
2018-10-21T03:06:25.518Z,4.59
2018-10-21T03:08:54.434Z,4.60
2018-10-21T03:11:23.165Z,4.68
2018-10-21T03:13:51.980Z,4.74
2018-10-21T03:16:20.508Z,4.79
2018-10-21T03:18:49.421Z,4.85
2018-10-21T03:21:17.930Z,4.84
2018-10-21T03:23:46.400Z,4.80
2018-10-21T03:26:15.026Z,4.88
2018-10-21T03:28:43.477Z,4.89
2018-10-21T03:31:12.025Z,4.86
2018-10-21T03:33:41.071Z,4.81
2018-10-21T03:36:09.437Z,4.80
2018-10-21T03:38:38.339Z,4.82
2018-10-21T03:41:07.278Z,4.78
2018-10-21T03:43:35.751Z,4.73
2018-10-21T03:46:04.426Z,4.70
2018-10-21T03:48:32.930Z,4.68
2018-10-21T03:51:01.429Z,4.65
2018-10-21T03:53:29.988Z,4.62
2018-10-21T03:55:58.593Z,4.58
2018-10-21T03:58:27.026Z,4.55
2018-10-21T04:00:55.985Z,4.53
2018-10-21T04:03:24.705Z,4.48
2018-10-21T04:05:53.197Z,4.28
2018-10-21T04:08:21.704Z,4.42
2018-10-21T04:10:51.242Z,4.41
2018-10-21T04:13:19.891Z,4.39
2018-10-21T04:15:48.702Z,4.39
2018-10-21T04:18:17.347Z,4.24
2018-10-21T04:20:45.809Z,4.41
2018-10-21T04:23:14.345Z,4.42
2018-10-21T04:25:43.006Z,4.46
2018-10-21T04:28:11.808Z,4.48
2018-10-21T04:30:41.314Z,4.50
2018-10-21T04:33:15.205Z,4.52
2018-10-21T04:35:43.743Z,4.54
2018-10-21T04:38:28.233Z,4.57
2018-10-21T04:40:57.061Z,4.62
2018-10-21T04:43:25.541Z,4.66
2018-10-21T04:45:54.326Z,4.69
2018-10-21T04:48:23.035Z,4.73
2018-10-21T04:50:51.477Z,4.80
2018-10-21T04:53:20.022Z,4.86
2018-10-21T04:55:48.580Z,4.91
2018-10-21T04:58:17.192Z,4.98
2018-10-21T05:00:45.744Z,5.03
2018-10-21T05:03:14.213Z,5.09
2018-10-21T05:05:42.647Z,5.16
2018-10-21T05:08:11.210Z,5.22
2018-10-21T05:10:40.329Z,5.28
2018-10-21T05:13:09.753Z,5.34
2018-10-21T05:15:39.746Z,5.40
2018-10-21T05:18:08.812Z,5.48
2018-10-21T05:20:37.760Z,5.53
2018-10-21T05:23:06.418Z,5.58
2018-10-21T05:25:34.921Z,5.63
2018-10-21T05:28:03.428Z,5.68
2018-10-21T05:30:32.476Z,5.73
2018-10-21T05:33:00.990Z,5.75
2018-10-21T05:35:29.429Z,5.79
2018-10-21T05:37:58.350Z,5.84
2018-10-21T05:40:26.887Z,5.89
2018-10-21T05:42:55.325Z,5.94
2018-10-21T05:45:23.974Z,5.98
2018-10-21T05:47:58.870Z,6.02
2018-10-21T05:50:27.798Z,6.05
2018-10-21T05:52:56.225Z,6.11
2018-10-21T05:55:24.749Z,6.15
2018-10-21T05:57:53.610Z,6.18
2018-10-21T06:00:22.061Z,6.22
2018-10-21T06:02:51.075Z,6.28
2018-10-21T06:05:35.881Z,6.32
2018-10-21T06:08:04.921Z,6.36
2018-10-21T06:10:34.774Z,6.40
2018-10-21T06:13:03.476Z,6.44
2018-10-21T06:15:32.219Z,6.48
2018-10-21T06:18:01.037Z,6.51
2018-10-21T06:20:34.338Z,6.55
2018-10-21T06:23:03.201Z,6.57
2018-10-21T06:25:31.629Z,6.61
2018-10-21T06:28:00.568Z,6.66
2018-10-21T06:30:29.236Z,6.70
2018-10-21T06:32:57.804Z,6.73
2018-10-21T06:35:26.354Z,6.77
2018-10-21T06:37:55.050Z,6.80
2018-10-21T06:40:23.510Z,6.83
2018-10-21T06:42:52.305Z,6.87
2018-10-21T06:45:21.122Z,6.91
2018-10-21T06:47:49.504Z,6.95
2018-10-21T06:50:19.900Z,6.98
2018-10-21T06:52:48.709Z,7.01
2018-10-21T06:55:17.157Z,7.04
2018-10-21T06:57:46.400Z,7.08
2018-10-21T07:00:15.004Z,7.10
2018-10-21T07:02:43.477Z,7.14
2018-10-21T07:05:24.126Z,7.18
2018-10-21T07:07:52.637Z,7.20
2018-10-21T07:10:21.769Z,7.22
2018-10-21T07:12:51.064Z,7.24
2018-10-21T07:15:20.081Z,7.21
2018-10-21T07:17:48.893Z,7.20
2018-10-21T07:20:17.595Z,7.21
2018-10-21T07:22:46.311Z,7.20
2018-10-21T07:25:14.822Z,7.18
2018-10-21T07:27:43.697Z,7.18
2018-10-21T07:30:13.330Z,7.16
2018-10-21T07:32:42.608Z,7.16
2018-10-21T07:35:13.814Z,7.17
2018-10-21T07:37:43.081Z,7.26
2018-10-21T07:40:12.578Z,7.60
2018-10-21T07:42:41.269Z,8.07
2018-10-21T07:45:09.737Z,8.41
2018-10-21T07:47:38.176Z,8.63
2018-10-21T07:50:07.394Z,8.95
2018-10-21T07:52:35.886Z,9.29
2018-10-21T07:55:04.478Z,9.21
2018-10-21T07:57:33.319Z,9.09
2018-10-21T08:00:01.819Z,9.11
2018-10-21T08:02:30.309Z,9.17
2018-10-21T08:04:59.264Z,9.32
2018-10-21T08:07:38.870Z,9.46
2018-10-21T08:10:07.991Z,9.97
2018-10-21T08:12:36.426Z,10.13
2018-10-21T08:15:05.199Z,9.98
2018-10-21T08:17:33.920Z,9.95
2018-10-21T08:20:02.442Z,9.75
2018-10-21T08:22:30.900Z,9.69
2018-10-21T08:25:00.066Z,9.68
2018-10-21T08:27:28.536Z,9.40
2018-10-21T08:29:57.035Z,9.16
2018-10-21T08:32:26.122Z,8.99
2018-10-21T08:34:54.669Z,8.86
2018-10-21T08:37:23.237Z,8.73
2018-10-21T08:39:51.994Z,8.64
2018-10-21T08:42:20.458Z,8.60
2018-10-21T08:44:48.925Z,8.56
2018-10-21T08:47:17.600Z,8.49
2018-10-21T08:49:46.106Z,8.44
2018-10-21T08:52:14.562Z,8.36
2018-10-21T08:54:43.166Z,8.35
2018-10-21T08:57:11.643Z,8.33
2018-10-21T08:59:40.105Z,8.34
2018-10-21T09:02:09.120Z,8.30
2018-10-21T09:04:37.444Z,8.28
2018-10-21T09:07:06.116Z,8.35
2018-10-21T09:09:34.912Z,8.48
2018-10-21T09:12:03.397Z,8.58
2018-10-21T09:14:31.886Z,8.56
2018-10-21T09:17:01.231Z,8.45
2018-10-21T09:19:30.059Z,8.53
2018-10-21T09:21:58.577Z,8.54
2018-10-21T09:24:27.610Z,8.05
2018-10-21T09:26:56.526Z,8.55
2018-10-21T09:29:25.009Z,8.58
2018-10-21T09:31:54.253Z,8.60
2018-10-21T09:34:22.714Z,8.69
2018-10-21T09:36:51.154Z,8.78
2018-10-21T09:39:19.798Z,8.85
2018-10-21T09:41:48.260Z,8.89
2018-10-21T09:44:16.697Z,8.90
2018-10-21T09:46:45.746Z,8.91
2018-10-21T09:49:14.298Z,8.88
2018-10-21T09:51:42.710Z,8.85
2018-10-21T09:54:11.798Z,8.85
2018-10-21T09:56:40.225Z,8.88
2018-10-21T09:59:09.234Z,8.92
2018-10-21T10:01:42.989Z,8.97
2018-10-21T10:04:11.524Z,9.03
2018-10-21T10:06:40.009Z,9.06
2018-10-21T10:09:11.173Z,9.09
2018-10-21T10:11:40.009Z,9.13
2018-10-21T10:14:08.566Z,9.19
2018-10-21T10:16:37.343Z,9.20
2018-10-21T10:19:06.276Z,9.24
2018-10-21T10:21:35.083Z,9.27
2018-10-21T10:24:03.826Z,9.29
2018-10-21T10:26:32.751Z,9.34
2018-10-21T10:29:01.354Z,9.42
2018-10-21T10:31:29.898Z,9.50
2018-10-21T10:33:58.528Z,9.62
2018-10-21T10:36:26.974Z,9.74
2018-10-21T10:38:55.821Z,9.73
2018-10-21T10:41:24.550Z,9.74
2018-10-21T10:43:59.952Z,9.82
2018-10-21T10:46:29.496Z,9.92
2018-10-21T10:48:58.026Z,9.99
2018-10-21T10:51:26.663Z,10.01
2018-10-21T10:53:55.388Z,10.00
2018-10-21T10:56:23.842Z,10.04
2018-10-21T10:58:52.406Z,10.08
2018-10-21T11:01:20.922Z,10.14
2018-10-21T11:03:49.382Z,10.22
2018-10-21T11:06:17.964Z,10.30
2018-10-21T11:08:46.493Z,10.36
2018-10-21T11:11:14.935Z,10.38
2018-10-21T11:13:43.512Z,10.37
2018-10-21T11:16:12.091Z,10.40
2018-10-21T11:18:40.768Z,10.45
2018-10-21T11:21:09.622Z,10.49
2018-10-21T11:23:38.360Z,10.55
2018-10-21T11:26:06.870Z,10.65
2018-10-21T11:28:35.734Z,10.73
2018-10-21T11:31:05.069Z,10.79
2018-10-21T11:33:33.489Z,10.80
2018-10-21T11:36:02.404Z,10.85
2018-10-21T11:38:31.083Z,10.95
2018-10-21T11:40:59.561Z,10.95
2018-10-21T11:43:28.464Z,10.83
2018-10-21T11:45:57.184Z,11.00
2018-10-21T11:48:25.684Z,11.03
2018-10-21T11:50:54.516Z,11.03
2018-10-21T11:53:23.189Z,11.04
2018-10-21T11:55:51.670Z,11.03
2018-10-21T11:58:20.521Z,11.03
2018-10-21T12:00:49.263Z,11.05
2018-10-21T12:03:17.736Z,11.08
2018-10-21T12:05:46.566Z,11.10
2018-10-21T12:08:15.315Z,11.11
2018-10-21T12:10:43.762Z,11.11
2018-10-21T12:13:12.383Z,11.13
2018-10-21T12:15:40.923Z,11.15
2018-10-21T12:18:09.664Z,11.18
2018-10-21T12:20:39.022Z,11.20
2018-10-21T12:23:07.801Z,11.21
2018-10-21T12:25:36.273Z,11.24
2018-10-21T12:28:05.123Z,11.24
2018-10-21T12:30:33.777Z,11.29
2018-10-21T12:33:02.390Z,11.32
2018-10-21T12:35:30.951Z,11.34
2018-10-21T12:38:01.879Z,11.37
2018-10-21T12:40:30.749Z,11.35
2018-10-21T12:42:59.394Z,11.36
2018-10-21T12:45:28.158Z,10.73
2018-10-21T12:47:56.560Z,11.41
2018-10-21T12:50:25.361Z,11.40
2018-10-21T12:52:53.913Z,11.41
2018-10-21T12:55:22.395Z,11.39
2018-10-21T12:57:51.115Z,11.41
2018-10-21T13:00:19.688Z,11.42
2018-10-21T13:02:48.184Z,11.44
2018-10-21T13:05:16.919Z,11.45
2018-10-21T13:07:45.664Z,11.45
2018-10-21T13:10:14.266Z,11.44
2018-10-21T13:12:42.974Z,11.41
2018-10-21T13:15:11.873Z,11.37
2018-10-21T13:17:41.582Z,11.36
2018-10-21T13:20:11.185Z,11.35
2018-10-21T13:22:39.729Z,11.35
2018-10-21T13:25:10.219Z,11.33
2018-10-21T13:27:39.973Z,11.32
2018-10-21T13:30:08.962Z,11.33
2018-10-21T13:32:37.685Z,11.34
2018-10-21T13:35:07.227Z,11.33
2018-10-21T13:37:35.989Z,11.35
2018-10-21T13:40:04.638Z,11.36
2018-10-21T13:42:33.206Z,11.37
2018-10-21T13:45:02.076Z,11.39
2018-10-21T13:47:30.574Z,11.42
2018-10-21T13:49:59.282Z,11.41
2018-10-21T13:52:28.119Z,11.37
2018-10-21T13:54:56.622Z,11.33
2018-10-21T13:57:25.148Z,11.27
2018-10-21T13:59:54.156Z,11.23
2018-10-21T14:02:22.646Z,11.20
2018-10-21T14:04:51.141Z,11.14
2018-10-21T14:07:19.740Z,11.09
2018-10-21T14:09:48.273Z,11.08
2018-10-21T14:12:16.781Z,11.05
2018-10-21T14:14:45.745Z,11.01
2018-10-21T14:17:14.237Z,11.00
2018-10-21T14:19:42.957Z,10.96
2018-10-21T14:22:11.856Z,10.94
2018-10-21T14:24:40.434Z,10.86
2018-10-21T14:27:08.925Z,10.83
2018-10-21T14:29:37.571Z,10.81
2018-10-21T14:32:06.280Z,10.84
2018-10-21T14:34:34.905Z,10.82
2018-10-21T14:37:03.578Z,10.86
2018-10-21T14:39:32.799Z,10.85
2018-10-21T14:42:01.467Z,10.81
2018-10-21T14:44:29.997Z,10.79
2018-10-21T14:46:58.579Z,10.77
2018-10-21T14:49:27.184Z,10.73
2018-10-21T14:51:56.002Z,10.19
2018-10-21T14:54:24.542Z,10.67
2018-10-21T14:56:53.092Z,10.68
2018-10-21T14:59:21.646Z,10.70
2018-10-21T15:01:50.176Z,10.71
2018-10-21T15:04:18.807Z,10.71
2018-10-21T15:06:47.506Z,10.76
2018-10-21T15:09:16.102Z,10.80
2018-10-21T15:11:44.730Z,10.82
2018-10-21T15:14:13.519Z,10.84
2018-10-21T15:16:41.977Z,10.87
2018-10-21T15:19:10.789Z,10.90
2018-10-21T15:21:39.538Z,10.92
2018-10-21T15:24:08.025Z,10.93
2018-10-21T15:26:36.682Z,10.92
2018-10-21T15:29:05.703Z,10.99
2018-10-21T15:31:34.386Z,10.86
2018-10-21T15:34:03.070Z,11.01
2018-10-21T15:36:31.721Z,11.03
2018-10-21T15:39:00.683Z,11.08
2018-10-21T15:41:29.329Z,11.11
2018-10-21T15:43:58.447Z,11.16
2018-10-21T15:46:27.086Z,11.19
2018-10-21T15:48:58.016Z,11.20
2018-10-21T15:51:27.681Z,11.20
2018-10-21T15:53:57.523Z,11.25
2018-10-21T15:56:28.757Z,11.29
2018-10-21T15:58:57.506Z,11.29
2018-10-21T16:01:25.970Z,11.33
2018-10-21T16:03:54.608Z,11.36
2018-10-21T16:06:23.342Z,11.37
2018-10-21T16:08:51.783Z,11.37
2018-10-21T16:11:20.604Z,11.38
2018-10-21T16:13:49.158Z,11.36
2018-10-21T16:16:17.689Z,11.39
2018-10-21T16:18:46.310Z,11.42
2018-10-21T16:21:15.054Z,11.44
2018-10-21T16:23:43.773Z,11.46
2018-10-21T16:26:12.809Z,11.49
2018-10-21T16:28:41.575Z,11.52
2018-10-21T16:31:10.087Z,11.55
2018-10-21T16:33:38.722Z,11.59
2018-10-21T16:36:07.481Z,11.63
2018-10-21T16:38:36.006Z,11.67
2018-10-21T16:41:05.086Z,11.70
2018-10-21T16:43:33.669Z,11.71
2018-10-21T16:46:02.131Z,11.75
2018-10-21T16:48:30.841Z,11.79
2018-10-21T16:50:59.690Z,11.81
2018-10-21T16:53:28.159Z,11.83
2018-10-21T16:55:56.735Z,11.85
2018-10-21T16:58:25.394Z,11.87
2018-10-21T17:00:53.954Z,11.85
2018-10-21T17:03:22.674Z,11.91
2018-10-21T17:05:51.284Z,11.92
2018-10-21T17:08:26.484Z,11.94
2018-10-21T17:10:55.276Z,11.96
2018-10-21T17:13:23.673Z,11.94
2018-10-21T17:15:52.585Z,11.98
2018-10-21T17:18:21.297Z,11.96
2018-10-21T17:20:49.829Z,12.01
2018-10-21T17:23:18.675Z,12.02
2018-10-21T17:25:47.257Z,12.03
2018-10-21T17:28:15.882Z,12.04
2018-10-21T17:33:22.803Z,12.06
2018-10-21T17:35:52.589Z,12.08
2018-10-21T17:38:21.816Z,12.08
2018-10-21T17:40:54.770Z,12.08
2018-10-21T17:43:25.755Z,12.07
2018-10-21T17:45:54.283Z,12.07
2018-10-21T17:48:22.803Z,12.09
2018-10-21T17:50:51.286Z,12.09
2018-10-21T17:53:20.041Z,12.11
2018-10-21T17:55:48.753Z,12.13
2018-10-21T17:58:17.282Z,12.13
2018-10-21T18:00:45.813Z,12.15
2018-10-21T18:03:14.502Z,12.15
2018-10-21T18:05:43.091Z,12.17
2018-10-21T18:08:11.890Z,12.20
2018-10-21T18:10:40.454Z,12.21
2018-10-21T18:13:09.010Z,12.23
2018-10-21T18:15:37.598Z,12.26
2018-10-21T18:18:06.129Z,12.28
2018-10-21T18:20:34.630Z,12.30
2018-10-21T18:23:03.470Z,12.32
2018-10-21T18:25:32.075Z,12.34
2018-10-21T18:28:00.657Z,12.36
2018-10-21T18:30:29.494Z,12.37
2018-10-21T18:32:58.099Z,12.39
2018-10-21T18:35:26.691Z,12.39
2018-10-21T18:37:55.580Z,12.39
2018-10-21T18:40:24.224Z,12.39
2018-10-21T18:42:52.748Z,12.40
2018-10-21T18:45:21.605Z,12.39
2018-10-21T18:47:50.221Z,12.41
2018-10-21T18:50:18.764Z,12.41
2018-10-21T18:52:47.309Z,12.42
2018-10-21T18:55:16.003Z,12.41
2018-10-21T18:57:44.478Z,12.43
2018-10-21T19:00:16.526Z,12.41
2018-10-21T19:02:45.199Z,12.43
2018-10-21T19:05:14.242Z,12.44
2018-10-21T19:07:42.854Z,12.43
2018-10-21T19:10:13.066Z,12.44
2018-10-21T19:12:41.618Z,12.45
2018-10-21T19:15:11.851Z,12.48
2018-10-21T19:17:41.016Z,12.48
2018-10-21T19:20:11.810Z,12.50
2018-10-21T19:22:40.726Z,12.51
2018-10-21T19:25:10.611Z,12.52
2018-10-21T19:27:39.124Z,12.52
2018-10-21T19:30:08.994Z,12.51
2018-10-21T19:32:37.499Z,12.53
2018-10-21T19:35:06.665Z,12.51
2018-10-21T19:37:35.283Z,12.50
2018-10-21T19:40:03.911Z,12.50
2018-10-21T19:42:32.821Z,12.50
2018-10-21T19:45:01.588Z,12.49
2018-10-21T19:47:30.586Z,12.50
2018-10-21T19:49:59.213Z,12.50
2018-10-21T19:52:28.086Z,12.52
2018-10-21T19:54:59.164Z,12.52
2018-10-21T19:57:29.053Z,12.52
2018-10-21T19:59:59.581Z,12.54
2018-10-21T20:02:29.704Z,12.53
2018-10-21T20:04:59.643Z,12.55
2018-10-21T20:07:29.807Z,12.55
2018-10-21T20:09:58.278Z,12.54
2018-10-21T20:12:31.043Z,12.54
2018-10-21T20:15:02.250Z,12.55
2018-10-21T20:17:30.753Z,12.54
2018-10-21T20:19:59.532Z,12.55
2018-10-21T20:22:28.238Z,12.55
2018-10-21T20:24:56.789Z,12.36
2018-10-21T20:27:25.419Z,12.59
2018-10-21T20:29:53.961Z,12.60
2018-10-21T20:32:22.652Z,12.63
2018-10-21T20:34:51.344Z,12.65
2018-10-21T20:37:20.046Z,12.67
2018-10-21T20:39:48.557Z,12.68
2018-10-21T20:42:17.489Z,12.71
2018-10-21T20:44:46.183Z,12.75
2018-10-21T20:47:14.738Z,12.74
2018-10-21T20:49:43.765Z,12.75
2018-10-21T20:52:12.507Z,12.74
2018-10-21T20:54:45.881Z,12.75
2018-10-21T20:57:15.041Z,12.75
2018-10-21T20:59:44.473Z,12.77
2018-10-21T21:02:14.114Z,12.80
2018-10-21T21:04:42.712Z,12.81
2018-10-21T21:07:11.596Z,12.83
2018-10-21T21:09:40.969Z,12.87
2018-10-21T21:12:09.581Z,12.92
2018-10-21T21:14:38.030Z,12.94
2018-10-21T21:17:06.645Z,12.99
2018-10-21T21:19:35.350Z,13.03
2018-10-21T21:22:03.853Z,13.08
2018-10-21T21:24:32.674Z,13.12
2018-10-21T21:27:01.402Z,13.15
2018-10-21T21:29:29.981Z,13.20
2018-10-21T21:31:58.727Z,13.23
2018-10-21T21:34:27.257Z,13.28
2018-10-21T21:36:55.701Z,13.31
2018-10-21T21:39:24.270Z,13.35
2018-10-21T21:41:52.784Z,13.38
2018-10-21T21:44:21.251Z,13.40
2018-10-21T21:46:49.917Z,13.41
2018-10-21T21:49:18.649Z,13.44
2018-10-21T21:51:47.821Z,13.46
2018-10-21T21:54:16.508Z,13.48
2018-10-21T21:56:45.881Z,13.51
2018-10-21T21:59:14.726Z,13.52
2018-10-21T22:01:43.557Z,13.52
2018-10-21T22:04:12.116Z,13.54
2018-10-21T22:06:40.553Z,13.54
2018-10-21T22:09:10.873Z,13.56
2018-10-21T22:11:39.550Z,13.59
2018-10-21T22:14:08.453Z,13.65
2018-10-21T22:16:37.065Z,13.68
2018-10-21T22:19:05.975Z,13.72
2018-10-21T22:21:34.802Z,13.76
2018-10-21T22:24:03.641Z,13.80
2018-10-21T22:26:32.161Z,13.83
2018-10-21T22:29:00.638Z,13.86
2018-10-21T22:31:29.230Z,13.95
2018-10-21T22:33:57.866Z,14.03
2018-10-21T22:36:26.397Z,14.06
2018-10-21T22:38:55.147Z,14.09
2018-10-21T22:41:23.822Z,14.10
2018-10-21T22:43:52.271Z,14.12
2018-10-21T22:46:21.453Z,14.15
2018-10-21T22:48:50.047Z,14.19
2018-10-21T22:51:18.731Z,14.22
2018-10-21T22:53:47.554Z,14.24
2018-10-21T22:56:16.562Z,14.25
2018-10-21T22:58:45.011Z,14.26
2018-10-21T23:01:13.585Z,14.27
2018-10-21T23:03:42.071Z,14.29
2018-10-21T23:06:10.566Z,14.33
2018-10-21T23:08:39.314Z,14.34
2018-10-21T23:11:07.829Z,14.37
2018-10-21T23:13:36.246Z,14.39
2018-10-21T23:16:05.198Z,14.40
2018-10-21T23:18:33.789Z,14.42
2018-10-21T23:21:02.325Z,14.43
2018-10-21T23:23:31.171Z,14.45
2018-10-21T23:26:00.151Z,14.51
2018-10-21T23:28:28.632Z,14.56
2018-10-21T23:30:57.534Z,14.58
2018-10-21T23:33:26.508Z,14.63
2018-10-21T23:35:54.965Z,14.64
2018-10-21T23:38:23.545Z,14.63
2018-10-21T23:40:52.352Z,14.63
2018-10-21T23:43:20.809Z,14.66
2018-10-21T23:45:49.585Z,14.65
2018-10-21T23:48:18.166Z,14.67
2018-10-21T23:50:46.609Z,14.69
2018-10-21T23:53:15.394Z,14.70
2018-10-21T23:55:44.376Z,14.74
2018-10-21T23:58:12.877Z,14.75
